Terminal Aerodrome Forecast
Issued by NWS Kansas City/Pleasant Hill, MO

Home | Current Version | Previous Version | Text Only | Print | Product List | Glossary On
Versions: 1 2 3 4 5 6 7 8 9 10 11 12 13
841
FTUS43 KEAX 270520
TAFMCI
TAF
KMCI 270520Z 2706/2806 17006KT P6SM SKC
     FM272000 14010KT P6SM BKN080
     FM280200 16009KT P6SM VCSH BKN030=

USA.gov is the U.S. government's official web portal to all federal, state and local government web resources and services.